sensor_id;sensor_type;location;lat;lon;timestamp;pressure;altitude;pressure_sealevel;temperature;humidity
27805;BME280;15183;51.350;11.102;2023-03-13T00:01:38;99206.47;;;11.79;69.77
27805;BME280;15183;51.350;11.102;2023-03-13T00:04:06;99183.03;;;11.71;70.13
27805;BME280;15183;51.350;11.102;2023-03-13T00:06:35;99154.44;;;11.51;69.77
27805;BME280;15183;51.350;11.102;2023-03-13T00:09:04;99115.91;;;11.21;69.91
27805;BME280;15183;51.350;11.102;2023-03-13T00:11:31;99199.81;;;11.77;70.06
27805;BME280;15183;51.350;11.102;2023-03-13T00:14:00;99188.41;;;11.76;69.98
27805;BME280;15183;51.350;11.102;2023-03-13T00:16:28;99198.22;;;11.76;69.59
27805;BME280;15183;51.350;11.102;2023-03-13T00:18:56;99183.34;;;11.75;69.29
27805;BME280;15183;51.350;11.102;2023-03-13T00:21:25;99172.72;;;11.75;69.67
27805;BME280;15183;51.350;11.102;2023-03-13T00:23:52;99161.31;;;11.74;69.49
27805;BME280;15183;51.350;11.102;2023-03-13T00:26:22;99121.22;;;11.48;69.43
27805;BME280;15183;51.350;11.102;2023-03-13T00:28:50;99189.66;;;11.96;69.39
27805;BME280;15183;51.350;11.102;2023-03-13T00:31:20;99165.16;;;11.88;69.03
27805;BME280;15183;51.350;11.102;2023-03-13T00:33:51;99164.91;;;11.90;69.00
27805;BME280;15183;51.350;11.102;2023-03-13T00:36:28;99166.63;;;12.01;68.95
27805;BME280;15183;51.350;11.102;2023-03-13T00:38:55;99169.28;;;12.01;69.15
27805;BME280;15183;51.350;11.102;2023-03-13T00:41:25;99171.47;;;12.10;68.66
27805;BME280;15183;51.350;11.102;2023-03-13T00:43:53;99190.97;;;12.21;68.85
27805;BME280;15183;51.350;11.102;2023-03-13T00:46:23;99172.41;;;12.26;68.81
27805;BME280;15183;51.350;11.102;2023-03-13T00:52:31;99154.00;;;12.14;68.69
27805;BME280;15183;51.350;11.102;2023-03-13T00:54:57;99171.66;;;12.30;68.58
27805;BME280;15183;51.350;11.102;2023-03-13T00:57:24;99177.53;;;12.33;68.55
27805;BME280;15183;51.350;11.102;2023-03-13T00:59:50;99122.38;;;12.12;68.35
27805;BME280;15183;51.350;11.102;2023-03-13T01:02:16;99135.44;;;12.14;67.78
27805;BME280;15183;51.350;11.102;2023-03-13T01:04:43;99153.66;;;12.38;67.90
27805;BME280;15183;51.350;11.102;2023-03-13T01:07:09;99162.97;;;12.40;67.99
27805;BME280;15183;51.350;11.102;2023-03-13T01:09:36;99108.53;;;12.05;67.81
27805;BME280;15183;51.350;11.102;2023-03-13T01:12:02;99129.34;;;12.19;67.66
27805;BME280;15183;51.350;11.102;2023-03-13T01:14:29;99157.38;;;12.37;67.88
27805;BME280;15183;51.350;11.102;2023-03-13T01:16:55;99112.00;;;12.11;67.26
27805;BME280;15183;51.350;11.102;2023-03-13T01:19:22;99123.81;;;12.25;67.63
27805;BME280;15183;51.350;11.102;2023-03-13T01:21:48;99075.25;;;11.97;67.53
27805;BME280;15183;51.350;11.102;2023-03-13T01:24:15;99099.84;;;12.15;67.63
27805;BME280;15183;51.350;11.102;2023-03-13T01:30:24;99135.31;;;12.36;67.86
27805;BME280;15183;51.350;11.102;2023-03-13T01:32:50;99121.44;;;12.29;67.28
27805;BME280;15183;51.350;11.102;2023-03-13T01:35:16;99117.72;;;12.30;67.28
27805;BME280;15183;51.350;11.102;2023-03-13T01:37:44;99106.84;;;12.26;67.13
27805;BME280;15183;51.350;11.102;2023-03-13T01:40:11;99117.78;;;12.35;67.43
27805;BME280;15183;51.350;11.102;2023-03-13T01:42:58;99074.25;;;12.04;67.72
27805;BME280;15183;51.350;11.102;2023-03-13T01:46:02;99075.13;;;12.14;67.28
27805;BME280;15183;51.350;11.102;2023-03-13T01:51:37;99119.66;;;12.40;67.29
27805;BME280;15183;51.350;11.102;2023-03-13T01:54:40;99106.91;;;12.37;67.26
27805;BME280;15183;51.350;11.102;2023-03-13T01:57:24;99101.84;;;12.35;67.10
27805;BME280;15183;51.350;11.102;2023-03-13T02:00:03;99096.53;;;12.35;67.33
27805;BME280;15183;51.350;11.102;2023-03-13T02:02:34;99094.16;;;12.39;67.27
27805;BME280;15183;51.350;11.102;2023-03-13T02:05:03;99057.31;;;12.10;67.08
27805;BME280;15183;51.350;11.102;2023-03-13T02:07:46;99073.91;;;12.27;66.66
27805;BME280;15183;51.350;11.102;2023-03-13T02:10:14;99065.94;;;12.27;67.31
27805;BME280;15183;51.350;11.102;2023-03-13T02:12:41;99068.59;;;12.27;67.06
27805;BME280;15183;51.350;11.102;2023-03-13T02:15:19;99057.94;;;12.22;66.89
27805;BME280;15183;51.350;11.102;2023-03-13T02:17:47;99044.34;;;12.13;66.94
27805;BME280;15183;51.350;11.102;2023-03-13T02:20:17;99008.53;;;11.88;66.90
27805;BME280;15183;51.350;11.102;2023-03-13T02:28:02;99052.84;;;12.15;66.79
27805;BME280;15183;51.350;11.102;2023-03-13T02:30:30;99010.41;;;11.88;66.98
27805;BME280;15183;51.350;11.102;2023-03-13T02:32:59;99051.69;;;12.01;66.81
27805;BME280;15183;51.350;11.102;2023-03-13T02:35:26;99049.88;;;12.12;66.99
27805;BME280;15183;51.350;11.102;2023-03-13T02:37:59;99036.88;;;12.10;66.86
27805;BME280;15183;51.350;11.102;2023-03-13T02:40:30;99012.06;;;11.99;67.00
27805;BME280;15183;51.350;11.102;2023-03-13T02:43:02;99005.22;;;12.04;66.56
27805;BME280;15183;51.350;11.102;2023-03-13T02:45:29;99024.19;;;12.23;66.88
27805;BME280;15183;51.350;11.102;2023-03-13T02:47:56;99000.81;;;12.20;66.82
27805;BME280;15183;51.350;11.102;2023-03-13T02:50:22;99011.75;;;12.23;66.92
27805;BME280;15183;51.350;11.102;2023-03-13T02:52:57;99009.06;;;12.18;66.65
27805;BME280;15183;51.350;11.102;2023-03-13T02:55:38;98968.06;;;12.04;66.60
27805;BME280;15183;51.350;11.102;2023-03-13T02:58:06;98979.22;;;12.06;67.31
27805;BME280;15183;51.350;11.102;2023-03-13T03:00:33;98988.56;;;12.13;66.72
27805;BME280;15183;51.350;11.102;2023-03-13T03:03:00;98948.00;;;11.85;66.79
27805;BME280;15183;51.350;11.102;2023-03-13T03:05:27;98987.28;;;12.21;66.42
27805;BME280;15183;51.350;11.102;2023-03-13T03:07:53;98950.00;;;12.00;66.81
27805;BME280;15183;51.350;11.102;2023-03-13T03:10:19;98923.59;;;11.88;66.59
27805;BME280;15183;51.350;11.102;2023-03-13T03:12:46;98967.09;;;12.20;66.57
27805;BME280;15183;51.350;11.102;2023-03-13T03:15:13;98960.75;;;12.26;66.36
27805;BME280;15183;51.350;11.102;2023-03-13T03:17:39;98957.53;;;12.19;66.45
27805;BME280;15183;51.350;11.102;2023-03-13T03:20:06;98949.84;;;12.23;66.32
27805;BME280;15183;51.350;11.102;2023-03-13T03:22:38;98900.78;;;11.87;66.59
27805;BME280;15183;51.350;11.102;2023-03-13T03:25:07;98888.59;;;11.92;66.10
27805;BME280;15183;51.350;11.102;2023-03-13T03:27:34;98923.50;;;12.11;66.31
27805;BME280;15183;51.350;11.102;2023-03-13T03:30:05;98926.66;;;12.08;66.43
27805;BME280;15183;51.350;11.102;2023-03-13T03:32:31;98920.53;;;12.02;66.54
27805;BME280;15183;51.350;11.102;2023-03-13T03:34:58;98882.19;;;11.82;66.11
27805;BME280;15183;51.350;11.102;2023-03-13T03:37:24;98886.22;;;11.90;66.36
27805;BME280;15183;51.350;11.102;2023-03-13T03:39:51;98906.22;;;12.03;66.14
27805;BME280;15183;51.350;11.102;2023-03-13T03:42:17;98898.19;;;11.98;65.99
27805;BME280;15183;51.350;11.102;2023-03-13T03:44:43;98903.22;;;11.94;66.73
27805;BME280;15183;51.350;11.102;2023-03-13T03:47:10;98884.63;;;11.94;66.57
27805;BME280;15183;51.350;11.102;2023-03-13T03:49:36;98857.97;;;11.73;66.20
27805;BME280;15183;51.350;11.102;2023-03-13T03:52:03;98800.22;;;11.38;66.48
27805;BME280;15183;51.350;11.102;2023-03-13T03:54:29;98794.72;;;11.44;66.52
27805;BME280;15183;51.350;11.102;2023-03-13T03:56:55;98886.53;;;11.99;66.31
27805;BME280;15183;51.350;11.102;2023-03-13T03:59:22;98848.75;;;11.86;66.65
27805;BME280;15183;51.350;11.102;2023-03-13T04:01:48;98874.59;;;12.01;66.86
27805;BME280;15183;51.350;11.102;2023-03-13T04:04:15;98856.56;;;12.04;66.49
27805;BME280;15183;51.350;11.102;2023-03-13T04:06:41;98857.88;;;12.01;66.27
27805;BME280;15183;51.350;11.102;2023-03-13T04:09:07;98838.44;;;11.95;66.69
27805;BME280;15183;51.350;11.102;2023-03-13T04:11:34;98820.91;;;11.84;66.55
27805;BME280;15183;51.350;11.102;2023-03-13T04:14:00;98764.72;;;11.44;66.44
27805;BME280;15183;51.350;11.102;2023-03-13T04:16:27;98818.50;;;11.82;66.57
27805;BME280;15183;51.350;11.102;2023-03-13T04:18:53;98833.38;;;11.88;66.78
27805;BME280;15183;51.350;11.102;2023-03-13T04:21:19;98843.00;;;12.00;66.89
27805;BME280;15183;51.350;11.102;2023-03-13T04:23:46;98811.59;;;11.86;67.03
27805;BME280;15183;51.350;11.102;2023-03-13T04:26:12;98795.13;;;11.79;66.72
27805;BME280;15183;51.350;11.102;2023-03-13T04:28:39;98820.94;;;11.94;66.82
27805;BME280;15183;51.350;11.102;2023-03-13T04:31:05;98801.81;;;11.92;66.80
27805;BME280;15183;51.350;11.102;2023-03-13T04:33:32;98791.44;;;11.91;66.74
27805;BME280;15183;51.350;11.102;2023-03-13T04:35:58;98810.38;;;12.10;66.96
27805;BME280;15183;51.350;11.102;2023-03-13T04:38:25;98727.94;;;11.63;66.98
27805;BME280;15183;51.350;11.102;2023-03-13T04:40:51;98744.47;;;11.86;66.75
27805;BME280;15183;51.350;11.102;2023-03-13T04:43:18;98773.75;;;12.12;66.63
27805;BME280;15183;51.350;11.102;2023-03-13T04:45:44;98798.53;;;12.38;66.88
27805;BME280;15183;51.350;11.102;2023-03-13T04:48:12;98723.81;;;12.04;66.92
27805;BME280;15183;51.350;11.102;2023-03-13T04:50:38;98741.38;;;12.15;66.51
27805;BME280;15183;51.350;11.102;2023-03-13T04:53:05;98767.44;;;12.49;66.88
27805;BME280;15183;51.350;11.102;2023-03-13T04:55:31;98752.03;;;12.36;66.93
27805;BME280;15183;51.350;11.102;2023-03-13T04:57:57;98740.88;;;12.34;67.08
27805;BME280;15183;51.350;11.102;2023-03-13T05:00:24;98732.13;;;12.33;67.15
27805;BME280;15183;51.350;11.102;2023-03-13T05:02:50;98659.25;;;11.82;67.53
27805;BME280;15183;51.350;11.102;2023-03-13T05:05:17;98723.34;;;12.27;67.59
27805;BME280;15183;51.350;11.102;2023-03-13T05:07:43;98695.44;;;12.14;67.49
27805;BME280;15183;51.350;11.102;2023-03-13T05:10:10;98628.72;;;11.69;68.09
27805;BME280;15183;51.350;11.102;2023-03-13T05:16:18;98681.59;;;11.97;68.33
27805;BME280;15183;51.350;11.102;2023-03-13T05:18:44;98687.69;;;11.97;68.40
27805;BME280;15183;51.350;11.102;2023-03-13T05:21:11;98676.00;;;11.88;68.83
27805;BME280;15183;51.350;11.102;2023-03-13T05:23:37;98630.81;;;11.52;68.72
27805;BME280;15183;51.350;11.102;2023-03-13T05:26:04;98655.00;;;11.76;69.10
27805;BME280;15183;51.350;11.102;2023-03-13T05:28:30;98638.00;;;11.62;69.43
27805;BME280;15183;51.350;11.102;2023-03-13T05:30:57;98635.59;;;11.65;68.99
27805;BME280;15183;51.350;11.102;2023-03-13T05:33:23;98637.78;;;11.79;69.26
27805;BME280;15183;51.350;11.102;2023-03-13T05:35:49;98595.25;;;11.48;69.16
27805;BME280;15183;51.350;11.102;2023-03-13T05:38:16;98609.38;;;11.74;69.76
27805;BME280;15183;51.350;11.102;2023-03-13T05:40:43;98633.78;;;11.92;69.53
27805;BME280;15183;51.350;11.102;2023-03-13T05:46:51;98602.47;;;11.68;69.52
27805;BME280;15183;51.350;11.102;2023-03-13T05:49:18;98622.91;;;11.83;69.96
27805;BME280;15183;51.350;11.102;2023-03-13T05:51:44;98623.97;;;11.92;69.72
27805;BME280;15183;51.350;11.102;2023-03-13T05:54:11;98613.34;;;11.92;69.76
27805;BME280;15183;51.350;11.102;2023-03-13T05:56:37;98636.75;;;12.00;69.33
27805;BME280;15183;51.350;11.102;2023-03-13T05:59:03;98615.47;;;11.95;nan
27805;BME280;15183;51.350;11.102;2023-03-13T06:05:11;98592.16;;;12.08;69.85
27805;BME280;15183;51.350;11.102;2023-03-13T06:07:38;98619.47;;;12.24;69.72
27805;BME280;15183;51.350;11.102;2023-03-13T06:10:05;98602.78;;;12.18;69.65
27805;BME280;15183;51.350;11.102;2023-03-13T06:12:31;98629.06;;;12.35;69.76
27805;BME280;15183;51.350;11.102;2023-03-13T06:14:58;98625.34;;;12.36;69.55
27805;BME280;15183;51.350;11.102;2023-03-13T06:17:24;98621.59;;;12.27;69.51
27805;BME280;15183;51.350;11.102;2023-03-13T06:19:51;98649.22;;;12.41;69.75
27805;BME280;15183;51.350;11.102;2023-03-13T06:22:17;98644.69;;;12.42;69.77
27805;BME280;15183;51.350;11.102;2023-03-13T06:24:44;98648.16;;;12.48;69.74
27805;BME280;15183;51.350;11.102;2023-03-13T06:27:11;98600.13;;;12.18;69.71
27805;BME280;15183;51.350;11.102;2023-03-13T06:29:38;98570.91;;;12.02;69.63
27805;BME280;15183;51.350;11.102;2023-03-13T06:32:05;98604.34;;;12.29;69.96
27805;BME280;15183;51.350;11.102;2023-03-13T06:34:31;98641.78;;;12.49;69.50
27805;BME280;15183;51.350;11.102;2023-03-13T06:36:58;98613.38;;;12.28;69.84
27805;BME280;15183;51.350;11.102;2023-03-13T06:39:25;98576.75;;;12.05;69.78
27805;BME280;15183;51.350;11.102;2023-03-13T06:41:51;98638.84;;;12.55;69.77
27805;BME280;15183;51.350;11.102;2023-03-13T06:44:18;98606.72;;;12.47;69.66
27805;BME280;15183;51.350;11.102;2023-03-13T06:46:44;98642.81;;;12.73;69.77
27805;BME280;15183;51.350;11.102;2023-03-13T06:49:11;98619.19;;;12.62;69.71
27805;BME280;15183;51.350;11.102;2023-03-13T06:51:37;98610.69;;;12.59;69.90
27805;BME280;15183;51.350;11.102;2023-03-13T06:54:03;98602.13;;;12.78;69.68
27805;BME280;15183;51.350;11.102;2023-03-13T06:56:30;98592.00;;;12.85;69.51
27805;BME280;15183;51.350;11.102;2023-03-13T06:58:57;98577.13;;;12.79;69.41
27805;BME280;15183;51.350;11.102;2023-03-13T07:01:23;98609.75;;;13.00;69.39
27805;BME280;15183;51.350;11.102;2023-03-13T07:03:50;98570.72;;;12.91;69.59
27805;BME280;15183;51.350;11.102;2023-03-13T07:06:17;98564.88;;;12.94;69.40
27805;BME280;15183;51.350;11.102;2023-03-13T07:08:44;98584.47;;;13.08;69.20
27805;BME280;15183;51.350;11.102;2023-03-13T07:11:12;98596.38;;;13.21;69.56
27805;BME280;15183;51.350;11.102;2023-03-13T07:13:39;98568.72;;;13.22;69.49
27805;BME280;15183;51.350;11.102;2023-03-13T07:16:09;98569.53;;;13.17;69.02
27805;BME280;15183;51.350;11.102;2023-03-13T07:18:36;98577.91;;;13.45;69.22
27805;BME280;15183;51.350;11.102;2023-03-13T07:21:04;98546.06;;;13.25;69.36
27805;BME280;15183;51.350;11.102;2023-03-13T07:23:32;98581.13;;;13.42;69.05
27805;BME280;15183;51.350;11.102;2023-03-13T07:26:07;98598.31;;;13.60;69.24
27805;BME280;15183;51.350;11.102;2023-03-13T07:28:34;98584.00;;;13.51;68.99
27805;BME280;15183;51.350;11.102;2023-03-13T07:31:16;98599.09;;;13.61;69.33
27805;BME280;15183;51.350;11.102;2023-03-13T07:33:43;98615.59;;;13.58;68.92
27805;BME280;15183;51.350;11.102;2023-03-13T07:36:12;98621.44;;;13.65;68.75
27805;BME280;15183;51.350;11.102;2023-03-13T07:38:39;98597.28;;;13.56;68.77
27805;BME280;15183;51.350;11.102;2023-03-13T07:41:06;98556.69;;;13.30;68.97
27805;BME280;15183;51.350;11.102;2023-03-13T07:43:32;98624.06;;;13.70;68.95
27805;BME280;15183;51.350;11.102;2023-03-13T07:46:02;98578.66;;;13.56;68.81
27805;BME280;15183;51.350;11.102;2023-03-13T07:48:40;98618.91;;;13.84;68.90
27805;BME280;15183;51.350;11.102;2023-03-13T07:51:12;98589.97;;;13.72;69.15
27805;BME280;15183;51.350;11.102;2023-03-13T07:53:38;98568.41;;;13.74;68.90
27805;BME280;15183;51.350;11.102;2023-03-13T07:56:09;98595.91;;;13.99;69.03
27805;BME280;15183;51.350;11.102;2023-03-13T07:58:38;98593.72;;;14.06;68.57
27805;BME280;15183;51.350;11.102;2023-03-13T08:01:17;98566.56;;;14.04;68.84
27805;BME280;15183;51.350;11.102;2023-03-13T08:03:44;98583.97;;;14.26;68.75
27805;BME280;15183;51.350;11.102;2023-03-13T08:06:15;98587.13;;;14.28;68.75
27805;BME280;15183;51.350;11.102;2023-03-13T08:08:42;98580.28;;;14.22;68.94
27805;BME280;15183;51.350;11.102;2023-03-13T08:11:14;98544.50;;;13.98;68.37
27805;BME280;15183;51.350;11.102;2023-03-13T08:13:41;98607.50;;;14.43;68.72
27805;BME280;15183;51.350;11.102;2023-03-13T08:16:13;98574.69;;;14.18;68.83
27805;BME280;15183;51.350;11.102;2023-03-13T08:18:43;98579.59;;;14.35;68.52
27805;BME280;15183;51.350;11.102;2023-03-13T08:21:14;98572.16;;;14.32;68.62
27805;BME280;15183;51.350;11.102;2023-03-13T08:23:41;98561.00;;;14.30;68.70
27805;BME280;15183;51.350;11.102;2023-03-13T08:26:16;98584.50;;;14.52;68.48
27805;BME280;15183;51.350;11.102;2023-03-13T08:28:44;98621.09;;;14.71;68.98
27805;BME280;15183;51.350;11.102;2023-03-13T08:31:21;98599.53;;;14.67;68.52
27805;BME280;15183;51.350;11.102;2023-03-13T08:33:48;98602.16;;;14.72;68.41
27805;BME280;15183;51.350;11.102;2023-03-13T08:36:24;98599.72;;;14.76;68.75
27805;BME280;15183;51.350;11.102;2023-03-13T08:38:53;98609.84;;;14.79;68.81
27805;BME280;15183;51.350;11.102;2023-03-13T08:41:23;98606.63;;;14.77;68.38
27805;BME280;15183;51.350;11.102;2023-03-13T08:43:57;98601.84;;;14.79;68.40
27805;BME280;15183;51.350;11.102;2023-03-13T08:46:24;98599.38;;;14.83;68.35
27805;BME280;15183;51.350;11.102;2023-03-13T08:48:52;98606.97;;;14.95;68.67
27805;BME280;15183;51.350;11.102;2023-03-13T08:51:22;98534.13;;;14.51;68.75
27805;BME280;15183;51.350;11.102;2023-03-13T08:53:50;98589.91;;;14.96;68.39
27805;BME280;15183;51.350;11.102;2023-03-13T08:56:19;98565.22;;;14.85;68.46
27805;BME280;15183;51.350;11.102;2023-03-13T08:58:50;98581.81;;;15.01;68.71
27805;BME280;15183;51.350;11.102;2023-03-13T09:01:18;98576.28;;;14.97;68.83
27805;BME280;15183;51.350;11.102;2023-03-13T09:03:44;98563.22;;;14.96;68.76
27805;BME280;15183;51.350;11.102;2023-03-13T09:06:11;98511.81;;;14.66;68.77
27805;BME280;15183;51.350;11.102;2023-03-13T09:08:39;98574.84;;;15.05;68.72
27805;BME280;15183;51.350;11.102;2023-03-13T09:11:12;98584.81;;;15.18;68.74
27805;BME280;15183;51.350;11.102;2023-03-13T09:13:43;98591.25;;;15.17;68.73
27805;BME280;15183;51.350;11.102;2023-03-13T09:16:23;98585.66;;;15.14;68.53
27805;BME280;15183;51.350;11.102;2023-03-13T09:18:50;98561.06;;;14.98;68.89
27805;BME280;15183;51.350;11.102;2023-03-13T09:21:23;98605.28;;;15.23;69.00
27805;BME280;15183;51.350;11.102;2023-03-13T09:23:50;98600.75;;;15.24;68.77
27805;BME280;15183;51.350;11.102;2023-03-13T09:26:19;98595.34;;;15.29;68.84
27805;BME280;15183;51.350;11.102;2023-03-13T09:28:46;98574.75;;;15.10;68.84
27805;BME280;15183;51.350;11.102;2023-03-13T09:31:19;98579.03;;;15.30;68.84
27805;BME280;15183;51.350;11.102;2023-03-13T09:33:48;98598.53;;;15.31;69.20
27805;BME280;15183;51.350;11.102;2023-03-13T09:36:15;98556.09;;;15.10;69.07
27805;BME280;15183;51.350;11.102;2023-03-13T09:38:42;98594.34;;;15.25;69.23
27805;BME280;15183;51.350;11.102;2023-03-13T09:44:38;98573.81;;;15.01;69.98
27805;BME280;15183;51.350;11.102;2023-03-13T09:47:45;98587.41;;;15.04;70.54
27805;BME280;15183;51.350;11.102;2023-03-13T09:52:48;98581.91;;;14.96;70.81
27805;BME280;15183;51.350;11.102;2023-03-13T09:59:19;98567.53;;;14.92;71.35
27805;BME280;15183;51.350;11.102;2023-03-13T10:01:48;98567.22;;;14.98;71.79
27805;BME280;15183;51.350;11.102;2023-03-13T10:06:46;98571.25;;;15.34;71.46
27805;BME280;15183;51.350;11.102;2023-03-13T10:09:31;98571.97;;;15.59;71.25
27805;BME280;15183;51.350;11.102;2023-03-13T10:15:31;98526.81;;;15.96;71.14
27805;BME280;15183;51.350;11.102;2023-03-13T10:18:01;98520.41;;;16.11;70.74
27805;BME280;15183;51.350;11.102;2023-03-13T10:20:35;98520.03;;;16.31;70.80
27805;BME280;15183;51.350;11.102;2023-03-13T10:25:36;98486.06;;;16.46;70.50
27805;BME280;15183;51.350;11.102;2023-03-13T10:28:09;98486.06;;;16.60;69.85
27805;BME280;15183;51.350;11.102;2023-03-13T10:30:37;98490.81;;;16.63;69.72
27805;BME280;15183;51.350;11.102;2023-03-13T10:35:41;98467.22;;;16.79;69.56
27805;BME280;15183;51.350;11.102;2023-03-13T10:38:18;98415.19;;;16.48;69.54
27805;BME280;15183;51.350;11.102;2023-03-13T10:41:01;98454.78;;;16.97;69.79
27805;BME280;15183;51.350;11.102;2023-03-13T10:43:31;98441.59;;;17.01;70.11
27805;BME280;15183;51.350;11.102;2023-03-13T10:46:24;98482.88;;;17.45;69.63
27805;BME280;15183;51.350;11.102;2023-03-13T10:48:54;98478.09;;;17.65;69.13
27805;BME280;15183;51.350;11.102;2023-03-13T10:51:24;98463.81;;;17.78;68.86
27805;BME280;15183;51.350;11.102;2023-03-13T10:53:55;98398.31;;;17.53;67.90
27805;BME280;15183;51.350;11.102;2023-03-13T10:56:28;98434.25;;;17.84;67.69
27805;BME280;15183;51.350;11.102;2023-03-13T10:58:55;98461.25;;;17.96;67.58
27805;BME280;15183;51.350;11.102;2023-03-13T11:01:26;98478.66;;;18.07;67.86
27805;BME280;15183;51.350;11.102;2023-03-13T11:04:29;98476.81;;;18.26;68.13
27805;BME280;15183;51.350;11.102;2023-03-13T11:07:15;98474.34;;;18.47;67.42
27805;BME280;15183;51.350;11.102;2023-03-13T11:09:58;98457.84;;;18.62;66.88
27805;BME280;15183;51.350;11.102;2023-03-13T11:12:25;98479.47;;;18.92;66.36
27805;BME280;15183;51.350;11.102;2023-03-13T11:14:59;98472.56;;;19.00;65.71
27805;BME280;15183;51.350;11.102;2023-03-13T11:17:39;98438.31;;;19.06;65.09
27805;BME280;15183;51.350;11.102;2023-03-13T11:20:29;98465.47;;;19.13;64.77
27805;BME280;15183;51.350;11.102;2023-03-13T11:28:57;98454.91;;;19.17;63.89
27805;BME280;15183;51.350;11.102;2023-03-13T11:31:27;98465.47;;;19.13;64.67
27805;BME280;15183;51.350;11.102;2023-03-13T11:34:09;98472.56;;;19.09;63.72
27805;BME280;15183;51.350;11.102;2023-03-13T11:37:00;98459.16;;;19.00;63.97
27805;BME280;15183;51.350;11.102;2023-03-13T11:48:34;98444.44;;;18.89;64.11
27805;BME280;15183;51.350;11.102;2023-03-13T11:51:19;98446.78;;;18.90;63.63
27805;BME280;15183;51.350;11.102;2023-03-13T11:54:02;98450.28;;;18.91;62.79
27805;BME280;15183;51.350;11.102;2023-03-13T11:59:12;98422.00;;;18.93;62.85
27805;BME280;15183;51.350;11.102;2023-03-13T12:02:22;98428.50;;;19.01;62.91
27805;BME280;15183;51.350;11.102;2023-03-13T12:05:04;98434.06;;;19.14;63.23
27805;BME280;15183;51.350;11.102;2023-03-13T12:07:41;98435.59;;;19.23;62.29
27805;BME280;15183;51.350;11.102;2023-03-13T12:13:11;98412.88;;;19.21;62.89
27805;BME280;15183;51.350;11.102;2023-03-13T12:15:49;98391.69;;;19.28;62.15
27805;BME280;15183;51.350;11.102;2023-03-13T12:18:34;98391.63;;;19.46;62.03
27805;BME280;15183;51.350;11.102;2023-03-13T12:21:31;98419.22;;;19.64;62.23
27805;BME280;15183;51.350;11.102;2023-03-13T12:24:49;98403.88;;;19.73;62.31
27805;BME280;15183;51.350;11.102;2023-03-13T12:27:19;98404.91;;;19.90;61.96
27805;BME280;15183;51.350;11.102;2023-03-13T12:30:40;98382.78;;;19.84;61.61
27805;BME280;15183;51.350;11.102;2023-03-13T12:33:25;98378.22;;;19.93;61.53
27805;BME280;15183;51.350;11.102;2023-03-13T12:38:43;98382.78;;;19.84;61.67
27805;BME280;15183;51.350;11.102;2023-03-13T12:41:47;98373.31;;;19.87;61.65
27805;BME280;15183;51.350;11.102;2023-03-13T12:44:19;98337.97;;;19.67;61.14
27805;BME280;15183;51.350;11.102;2023-03-13T12:47:01;98343.13;;;19.81;61.12
27805;BME280;15183;51.350;11.102;2023-03-13T12:50:04;98354.16;;;19.88;61.72
27805;BME280;15183;51.350;11.102;2023-03-13T12:56:01;98355.34;;;20.08;61.00
27805;BME280;15183;51.350;11.102;2023-03-13T12:58:55;98327.06;;;20.02;60.91
27805;BME280;15183;51.350;11.102;2023-03-13T13:03:55;98325.25;;;20.36;60.26
27805;BME280;15183;51.350;11.102;2023-03-13T13:06:50;98342.03;;;20.54;60.59
27805;BME280;15183;51.350;11.102;2023-03-13T13:12:20;98341.56;;;20.74;60.09
27805;BME280;15183;51.350;11.102;2023-03-13T13:20:36;98313.88;;;21.19;59.13
27805;BME280;15183;51.350;11.102;2023-03-13T13:23:26;98322.22;;;21.27;59.33
27805;BME280;15183;51.350;11.102;2023-03-13T13:25:55;98291.47;;;21.28;58.22
27805;BME280;15183;51.350;11.102;2023-03-13T13:28:41;98271.94;;;21.31;58.62
27805;BME280;15183;51.350;11.102;2023-03-13T13:39:52;98285.28;;;21.39;57.72
27805;BME280;15183;51.350;11.102;2023-03-13T13:47:46;98227.69;;;21.19;57.30
27805;BME280;15183;51.350;11.102;2023-03-13T13:50:27;98299.44;;;21.61;57.14
27805;BME280;15183;51.350;11.102;2023-03-13T13:53:29;98294.97;;;21.65;57.58
27805;BME280;15183;51.350;11.102;2023-03-13T13:55:56;98279.56;;;21.53;56.88
27805;BME280;15183;51.350;11.102;2023-03-13T13:58:28;98277.34;;;21.68;56.81
27805;BME280;15183;51.350;11.102;2023-03-13T14:01:04;98284.19;;;21.65;56.45
27805;BME280;15183;51.350;11.102;2023-03-13T14:03:39;98302.38;;;21.81;56.54
27805;BME280;15183;51.350;11.102;2023-03-13T14:06:22;98282.59;;;21.77;56.44
27805;BME280;15183;51.350;11.102;2023-03-13T14:08:58;98287.88;;;21.86;56.54
27805;BME280;15183;51.350;11.102;2023-03-13T14:11:37;98299.34;;;21.82;56.41
27805;BME280;15183;51.350;11.102;2023-03-13T14:14:19;98283.50;;;21.56;56.25
27805;BME280;15183;51.350;11.102;2023-03-13T14:16:54;98304.94;;;21.52;56.68
27805;BME280;15183;51.350;11.102;2023-03-13T14:19:28;98284.81;;;21.37;56.74
27805;BME280;15183;51.350;11.102;2023-03-13T14:22:07;98298.41;;;21.41;56.61
27805;BME280;15183;51.350;11.102;2023-03-13T14:24:34;98290.88;;;21.22;56.50
27805;BME280;15183;51.350;11.102;2023-03-13T14:27:13;98262.59;;;21.16;56.48
27805;BME280;15183;51.350;11.102;2023-03-13T14:29:40;98258.88;;;21.20;57.01
27805;BME280;15183;51.350;11.102;2023-03-13T14:32:06;98265.28;;;21.28;56.68
27805;BME280;15183;51.350;11.102;2023-03-13T14:34:33;98281.91;;;21.30;56.52
27805;BME280;15183;51.350;11.102;2023-03-13T14:37:01;98198.03;;;20.82;55.91
27805;BME280;15183;51.350;11.102;2023-03-13T14:39:44;98279.66;;;21.20;56.96
27805;BME280;15183;51.350;11.102;2023-03-13T14:42:13;98270.00;;;21.06;56.86
27805;BME280;15183;51.350;11.102;2023-03-13T14:44:41;98286.69;;;21.00;56.75
27805;BME280;15183;51.350;11.102;2023-03-13T14:47:25;98281.63;;;20.86;57.44
27805;BME280;15183;51.350;11.102;2023-03-13T14:50:12;98258.84;;;20.62;57.64
27805;BME280;15183;51.350;11.102;2023-03-13T14:52:49;98285.13;;;20.65;56.75